Time;durP1;ratioP1;P1;durP2;ratioP2;P2;SDS_P1;SDS_P2;PMS_P1;PMS_P2;Temp;Humidity;BMP_temperature;BMP_pressure;BME280_temperature;BME280_humidity;BME280_pressure;Samples;Min_cycle;Max_cycle;Signal;HPM_P1;HPM_P2
2024/02/23 00:01:11;;;;;;;4.18;1.48;;;;;;;6.19;71.76;98442.06;5043115;28;20077;-78
2024/02/23 00:03:39;;;;;;;2.38;2.17;;;;;;;6.22;71.70;98439.97;5039578;28;20111;-79
2024/02/23 00:06:08;;;;;;;3.70;1.98;;;;;;;6.20;72.26;98456.84;5033148;28;20080;-77
2024/02/23 00:08:35;;;;;;;3.58;1.60;;;;;;;6.14;73.02;98463.56;5034407;28;20046;-80
2024/02/23 00:11:02;;;;;;;4.85;1.83;;;;;;;6.19;73.70;98457.84;5035812;28;20140;-79
2024/02/23 00:13:28;;;;;;;4.05;1.90;;;;;;;6.24;73.37;98471.31;5044416;28;20088;-78
2024/02/23 00:15:55;;;;;;;2.88;1.80;;;;;;;6.25;74.34;98486.06;5037454;28;20056;-80
2024/02/23 00:18:24;;;;;;;4.20;1.83;;;;;;;6.17;75.29;98489.50;5033876;28;20057;-80
2024/02/23 00:20:50;;;;;;;3.75;2.05;;;;;;;6.02;75.22;98486.66;5034509;28;20136;-80
2024/02/23 00:23:19;;;;;;;2.80;1.77;;;;;;;5.80;76.73;98498.53;5034287;28;20059;-77
2024/02/23 00:25:45;;;;;;;2.05;1.40;;;;;;;5.64;77.32;98502.84;5036606;28;20144;-80
2024/02/23 00:28:12;;;;;;;2.05;1.48;;;;;;;5.58;77.66;98496.41;5036298;28;20072;-80
2024/02/23 00:30:39;;;;;;;2.17;1.75;;;;;;;5.52;77.84;98510.97;5040639;28;20140;-80
2024/02/23 00:33:06;;;;;;;3.13;1.88;;;;;;;5.46;78.45;98510.78;5045979;28;20045;-77
2024/02/23 00:35:32;;;;;;;3.85;1.73;;;;;;;5.39;78.58;98515.78;5039331;28;20058;-78
2024/02/23 00:37:59;;;;;;;5.47;1.80;;;;;;;5.37;78.27;98507.28;5040554;28;20149;-80
2024/02/23 00:40:27;;;;;;;2.83;1.63;;;;;;;5.38;77.17;98511.53;5040579;28;20172;-79
2024/02/23 00:42:53;;;;;;;4.68;1.88;;;;;;;5.36;77.35;98516.13;5041569;28;20042;-80
2024/02/23 00:45:21;;;;;;;3.15;2.17;;;;;;;5.35;78.03;98509.22;5041639;28;20109;-81
2024/02/23 00:47:48;;;;;;;2.10;1.70;;;;;;;5.35;78.08;98524.94;5052398;28;20065;-80
2024/02/23 00:50:14;;;;;;;3.40;1.98;;;;;;;5.30;78.77;98524.59;5051914;28;20055;-80
2024/02/23 00:52:41;;;;;;;4.30;2.35;;;;;;;5.33;78.36;98516.41;5050388;28;20081;-79
2024/02/23 00:55:09;;;;;;;3.55;1.80;;;;;;;5.28;78.94;98521.31;5044062;28;20045;-79
2024/02/23 00:57:37;;;;;;;4.07;2.10;;;;;;;5.32;78.10;98527.91;5036787;28;20128;-78
2024/02/23 01:00:06;;;;;;;4.50;2.53;;;;;;;5.26;78.09;98541.59;5037425;28;20045;-77
2024/02/23 01:02:32;;;;;;;3.72;1.77;;;;;;;5.27;76.87;98536.22;5036327;28;20049;-79
2024/02/23 01:04:59;;;;;;;7.43;2.17;;;;;;;5.28;75.99;98540.47;5035910;28;20083;-79
2024/02/23 01:07:26;;;;;;;4.57;1.65;;;;;;;5.31;75.92;98528.84;5044370;28;20134;-78
2024/02/23 01:09:52;;;;;;;3.67;1.90;;;;;;;5.31;75.50;98555.06;5037544;28;20130;-79
2024/02/23 01:12:19;;;;;;;5.00;1.67;;;;;;;5.29;75.65;98559.66;5037511;28;20132;-78
2024/02/23 01:14:48;;;;;;;4.15;2.05;;;;;;;5.33;74.96;98551.34;5036990;28;20133;-79
2024/02/23 01:17:15;;;;;;;3.78;2.10;;;;;;;5.27;75.60;98548.50;5037864;28;20099;-78
2024/02/23 01:19:42;;;;;;;5.53;1.40;;;;;;;5.27;75.78;98559.00;5045898;28;20496;-79
2024/02/23 01:22:08;;;;;;;6.53;2.25;;;;;;;5.26;76.05;98562.56;5041408;28;20526;-79
2024/02/23 01:24:35;;;;;;;5.93;2.08;;;;;;;5.27;75.89;98566.88;5040512;28;20041;-79
2024/02/23 01:27:01;;;;;;;5.72;2.00;;;;;;;5.26;76.03;98567.81;5046972;28;20152;-80
2024/02/23 01:29:28;;;;;;;7.05;1.77;;;;;;;5.20;77.10;98578.91;5039988;28;20080;-80
2024/02/23 01:31:56;;;;;;;3.72;1.45;;;;;;;5.14;77.34;98587.41;5037614;28;20137;-77
2024/02/23 01:34:23;;;;;;;4.22;1.42;;;;;;;5.12;77.77;98591.94;5037617;28;20049;-79
2024/02/23 01:36:50;;;;;;;2.28;1.42;;;;;;;5.05;78.15;98589.94;5044989;28;20049;-80
2024/02/23 01:39:16;;;;;;;1.90;1.08;;;;;;;5.01;78.04;98599.06;5039342;28;20073;-79
2024/02/23 01:41:43;;;;;;;2.50;1.40;;;;;;;4.92;78.53;98599.97;5039996;28;20085;-82
2024/02/23 01:44:10;;;;;;;5.88;2.13;;;;;;;4.93;78.15;98611.28;5039592;28;20116;-76
2024/02/23 01:46:38;;;;;;;2.05;1.40;;;;;;;4.86;79.56;98616.25;5044896;28;20057;-80
2024/02/23 01:49:09;;;;;;;3.40;1.48;;;;;;;4.83;79.51;98613.97;5037600;28;20583;-76
2024/02/23 01:51:36;;;;;;;4.97;1.75;;;;;;;4.79;80.02;98621.28;5037875;28;20045;-79
2024/02/23 01:54:03;;;;;;;3.13;1.40;;;;;;;4.79;79.59;98620.47;5040871;28;20045;-79
2024/02/23 01:56:30;;;;;;;2.08;1.13;;;;;;;4.76;79.58;98637.28;5034322;28;20050;-80
2024/02/23 01:58:57;;;;;;;1.98;1.20;;;;;;;4.73;80.21;98634.13;5018538;28;20049;-78
2024/02/23 02:01:24;;;;;;;3.15;1.40;;;;;;;4.71;79.93;98623.81;5017738;28;20112;-80
2024/02/23 02:03:51;;;;;;;5.25;1.58;;;;;;;4.64;79.99;98637.63;5034479;28;20045;-79
2024/02/23 02:06:19;;;;;;;4.95;1.73;;;;;;;4.60;79.87;98637.13;5037744;28;20045;-79
2024/02/23 02:08:47;;;;;;;4.30;1.50;;;;;;;4.63;79.66;98628.94;5038444;28;20111;-79
2024/02/23 02:11:14;;;;;;;2.08;1.40;;;;;;;4.65;78.89;98639.28;5038474;28;20053;-79
2024/02/23 02:13:41;;;;;;;5.72;1.92;;;;;;;4.69;78.76;98646.72;5040596;28;20060;-79
2024/02/23 02:16:08;;;;;;;5.90;2.05;;;;;;;4.69;79.00;98645.91;5050819;28;20154;-79
2024/02/23 02:18:34;;;;;;;4.88;1.63;;;;;;;4.64;79.11;98640.25;5047702;28;20081;-79
2024/02/23 02:21:01;;;;;;;6.72;1.65;;;;;;;4.58;79.12;98644.28;5045680;28;20102;-81
2024/02/23 02:23:29;;;;;;;5.20;1.80;;;;;;;4.61;79.14;98653.66;5040288;28;20099;-81
2024/02/23 02:25:57;;;;;;;7.10;1.65;;;;;;;4.58;79.08;98646.91;5044127;28;20049;-80
2024/02/23 02:28:24;;;;;;;4.47;1.90;;;;;;;4.57;79.07;98664.41;5037936;28;20073;-77
2024/02/23 02:30:52;;;;;;;5.80;2.00;;;;;;;4.51;79.40;98657.13;5036800;28;20117;-79
2024/02/23 02:33:19;;;;;;;6.07;2.00;;;;;;;4.60;78.20;98654.59;5044825;28;20108;-80
2024/02/23 02:35:46;;;;;;;8.60;1.60;;;;;;;4.63;78.04;98656.94;5037491;28;20080;-80
2024/02/23 02:38:12;;;;;;;8.45;1.77;;;;;;;4.57;78.30;98646.06;5037648;28;20050;-80
2024/02/23 02:40:40;;;;;;;3.67;1.80;;;;;;;4.62;77.95;98663.16;5037518;28;20046;-80
2024/02/23 02:43:08;;;;;;;8.75;3.13;;;;;;;4.61;78.16;98672.81;5037296;28;20099;-78
2024/02/23 02:45:34;;;;;;;8.43;2.47;;;;;;;4.60;78.60;98675.56;5043645;28;20050;-79
2024/02/23 02:48:01;;;;;;;7.22;1.95;;;;;;;4.56;78.68;98677.66;5037820;28;20077;-79
2024/02/23 02:50:28;;;;;;;5.05;1.75;;;;;;;4.52;78.44;98671.88;5030871;28;20059;-80
2024/02/23 02:52:55;;;;;;;8.68;1.98;;;;;;;4.53;77.94;98678.75;5044575;28;20061;-81
2024/02/23 02:55:21;;;;;;;7.70;1.70;;;;;;;4.51;77.69;98677.28;5038139;28;20136;-77
2024/02/23 02:57:49;;;;;;;4.90;1.50;;;;;;;4.44;77.91;98686.66;5038754;28;20054;-81
2024/02/23 03:00:16;;;;;;;5.93;2.00;;;;;;;4.37;78.97;98685.56;5038108;28;20122;-78
2024/02/23 03:02:43;;;;;;;2.80;1.35;;;;;;;4.45;77.29;98696.16;5043642;28;20128;-80
2024/02/23 03:05:10;;;;;;;2.20;1.40;;;;;;;4.49;77.08;98685.25;5037657;28;20085;-80
2024/02/23 03:07:36;;;;;;;5.57;1.65;;;;;;;4.49;76.77;98692.28;5040621;28;20103;-81
2024/02/23 03:10:06;;;;;;;4.45;1.55;;;;;;;4.49;76.56;98694.91;5043425;28;20077;-79
2024/02/23 03:12:33;;;;;;;3.33;1.75;;;;;;;4.45;76.33;98698.78;5040577;28;20045;-79
2024/02/23 03:15:03;;;;;;;4.70;1.77;;;;;;;4.41;75.89;98703.47;5047058;28;20029;-80
2024/02/23 03:17:29;;;;;;;5.95;2.20;;;;;;;4.46;75.69;98701.25;5044426;28;20045;-78
2024/02/23 03:19:57;;;;;;;7.13;1.98;;;;;;;4.42;75.84;98702.53;5040343;28;20408;-80
2024/02/23 03:22:24;;;;;;;4.18;1.65;;;;;;;4.43;76.12;98700.72;5037388;28;20111;-81
2024/02/23 03:24:50;;;;;;;2.58;1.40;;;;;;;4.36;76.22;98684.75;5036730;28;20105;-80
2024/02/23 03:27:17;;;;;;;6.32;2.03;;;;;;;4.35;76.13;98687.53;5037848;28;20091;-82
2024/02/23 03:29:44;;;;;;;2.75;1.63;;;;;;;4.31;75.68;98702.69;5036975;28;20085;-81
2024/02/23 03:32:12;;;;;;;6.95;1.85;;;;;;;4.38;75.58;98705.56;5037927;28;20052;-81
2024/02/23 03:34:38;;;;;;;6.68;1.60;;;;;;;4.33;75.85;98700.75;5038229;28;20088;-80
2024/02/23 03:37:05;;;;;;;3.80;1.77;;;;;;;4.33;76.27;98706.00;5037347;28;20470;-80
2024/02/23 03:39:32;;;;;;;5.32;1.80;;;;;;;4.23;76.81;98700.75;5037101;28;20546;-79
2024/02/23 03:41:59;;;;;;;6.35;1.45;;;;;;;4.28;76.32;98702.97;5036071;28;20072;-79
2024/02/23 03:44:25;;;;;;;3.20;1.52;;;;;;;4.25;76.48;98703.25;5037089;28;20412;-81
2024/02/23 03:46:52;;;;;;;2.80;1.60;;;;;;;4.27;76.32;98704.75;5037456;28;20053;-80
2024/02/23 03:49:20;;;;;;;4.22;1.52;;;;;;;4.28;76.56;98706.41;5037503;28;20600;-80
2024/02/23 03:51:47;;;;;;;5.30;1.50;;;;;;;4.27;76.63;98706.56;5044294;28;20124;-79
2024/02/23 03:54:13;;;;;;;7.80;1.77;;;;;;;4.29;76.12;98720.34;5039586;28;20368;-80
2024/02/23 03:56:41;;;;;;;4.28;1.60;;;;;;;4.34;75.94;98709.44;5041032;28;20053;-81
2024/02/23 03:59:09;;;;;;;6.35;1.40;;;;;;;4.35;76.57;98706.66;5041899;28;20053;-80
2024/02/23 04:01:36;;;;;;;5.43;2.72;;;;;;;4.47;75.56;98708.16;5041160;28;20073;-81
2024/02/23 04:04:02;;;;;;;4.10;2.03;;;;;;;4.61;75.11;98708.66;5038714;28;20080;-83
2024/02/23 04:06:31;;;;;;;6.60;1.85;;;;;;;4.65;75.05;98699.56;5038852;28;20049;-80
2024/02/23 04:08:57;;;;;;;2.72;1.33;;;;;;;4.75;74.69;98705.56;5036810;28;20546;-79
2024/02/23 04:11:24;;;;;;;6.13;1.92;;;;;;;4.81;73.68;98705.81;5039665;28;20049;-80
2024/02/23 04:13:50;;;;;;;2.40;1.50;;;;;;;4.83;73.76;98708.28;5045493;28;20109;-83
2024/02/23 04:16:17;;;;;;;4.75;1.55;;;;;;;4.87;73.67;98707.03;5042601;28;20109;-82
2024/02/23 04:18:44;;;;;;;13.25;3.10;;;;;;;4.89;73.45;98707.69;5042074;28;20099;-79
2024/02/23 04:21:10;;;;;;;4.25;1.65;;;;;;;4.97;72.66;98720.09;5042317;28;20132;-80
2024/02/23 04:23:39;;;;;;;4.60;1.75;;;;;;;4.96;73.12;98724.50;5041199;28;20113;-79
2024/02/23 04:26:06;;;;;;;3.85;1.73;;;;;;;4.99;73.32;98713.72;5040537;28;20088;-81
2024/02/23 04:28:33;;;;;;;4.03;1.60;;;;;;;5.00;73.50;98714.53;5040880;28;20054;-80
2024/02/23 04:31:00;;;;;;;6.80;1.85;;;;;;;4.90;73.83;98719.00;5040611;28;20042;-81
2024/02/23 04:33:27;;;;;;;7.50;2.22;;;;;;;4.81;73.84;98716.28;5039956;28;20065;-80
2024/02/23 04:35:53;;;;;;;4.82;1.77;;;;;;;4.78;73.97;98727.06;5039782;28;20583;-80
2024/02/23 04:38:22;;;;;;;4.32;1.60;;;;;;;4.76;73.57;98723.75;5060969;22;20056;-82
2024/02/23 04:40:50;;;;;;;6.95;2.17;;;;;;;4.80;73.57;98712.03;5023153;28;20135;-84
2024/02/23 04:43:17;;;;;;;9.90;2.10;;;;;;;4.80;73.82;98719.06;5022447;28;20113;-83
2024/02/23 04:45:43;;;;;;;7.32;1.92;;;;;;;4.87;73.50;98725.38;5024764;28;20093;-81
2024/02/23 04:48:11;;;;;;;7.13;1.67;;;;;;;4.79;73.25;98723.47;5021727;28;20085;-83
2024/02/23 04:50:37;;;;;;;4.15;1.55;;;;;;;4.77;72.88;98721.97;5005371;28;20042;-83
2024/02/23 04:53:04;;;;;;;7.47;1.75;;;;;;;4.67;74.04;98718.56;5005059;28;20077;-83
2024/02/23 04:55:31;;;;;;;7.10;2.35;;;;;;;4.61;74.02;98722.59;5011333;28;20073;-82
2024/02/23 04:57:59;;;;;;;2.40;1.42;;;;;;;4.53;73.82;98725.91;5001313;28;20571;-80
2024/02/23 05:00:28;;;;;;;11.25;2.53;;;;;;;4.50;74.35;98734.03;5002737;28;20054;-83
2024/02/23 05:02:55;;;;;;;4.03;1.85;;;;;;;4.42;75.03;98735.72;5009330;28;20373;-83
2024/02/23 05:05:23;;;;;;;5.30;2.05;;;;;;;4.48;73.82;98729.94;5001644;28;20073;-82
2024/02/23 05:07:49;;;;;;;6.65;2.38;;;;;;;4.40;74.47;98738.50;5001661;28;20052;-81
2024/02/23 05:10:17;;;;;;;5.88;2.08;;;;;;;4.38;75.24;98745.69;5007483;28;20074;-82
2024/02/23 05:12:43;;;;;;;6.43;2.05;;;;;;;4.38;74.94;98735.19;5001731;28;20112;-82
2024/02/23 05:15:13;;;;;;;8.07;2.03;;;;;;;4.45;74.78;98738.88;5001290;28;20085;-81
2024/02/23 05:17:39;;;;;;;4.88;1.52;;;;;;;4.41;75.19;98726.22;5006640;28;20181;-81
2024/02/23 05:20:08;;;;;;;5.63;1.40;;;;;;;4.40;75.22;98730.63;5009462;28;20050;-82
2024/02/23 05:22:34;;;;;;;4.53;2.47;;;;;;;4.37;75.06;98730.09;5008383;28;20050;-82
2024/02/23 05:25:01;;;;;;;8.10;2.05;;;;;;;4.34;74.80;98727.78;5015994;28;20077;-82
2024/02/23 05:27:30;;;;;;;3.80;1.88;;;;;;;4.32;75.46;98735.75;5005726;28;20049;-82
2024/02/23 05:29:57;;;;;;;5.68;1.92;;;;;;;4.24;75.55;98730.38;5014046;28;20041;-82
2024/02/23 05:32:25;;;;;;;6.82;1.80;;;;;;;4.30;75.43;98727.22;5002374;28;20062;-81
2024/02/23 05:34:53;;;;;;;9.93;2.70;;;;;;;4.28;74.77;98729.97;5001401;28;20129;-82
2024/02/23 05:37:20;;;;;;;4.57;2.00;;;;;;;4.32;74.65;98720.03;5006199;28;20055;-82
2024/02/23 05:39:47;;;;;;;7.10;2.13;;;;;;;4.28;75.24;98723.91;5012398;28;20506;-84
2024/02/23 05:42:14;;;;;;;8.07;2.53;;;;;;;4.32;75.43;98714.78;5005899;28;20054;-82
2024/02/23 05:44:40;;;;;;;7.22;2.22;;;;;;;4.27;74.59;98727.50;5010483;28;20053;-83
2024/02/23 05:47:07;;;;;;;5.85;2.47;;;;;;;4.24;75.29;98722.53;5008847;28;20038;-83
2024/02/23 05:49:35;;;;;;;7.55;2.05;;;;;;;4.18;75.23;98718.69;5012359;28;20066;-82
2024/02/23 05:52:02;;;;;;;9.05;2.67;;;;;;;4.32;75.13;98733.13;5016487;28;20042;-87
2024/02/23 05:54:29;;;;;;;12.27;2.67;;;;;;;4.22;76.31;98730.53;5000433;28;20061;-83
2024/02/23 05:56:55;;;;;;;7.30;2.50;;;;;;;4.24;75.89;98722.53;5001834;28;20129;-81
2024/02/23 05:59:24;;;;;;;9.60;2.58;;;;;;;4.18;75.54;98729.16;5001409;28;20110;-81
2024/02/23 06:01:56;;;;;;;6.22;2.35;;;;;;;4.21;75.61;98733.31;5011815;28;20745;-80
2024/02/23 06:04:25;;;;;;;7.30;2.30;;;;;;;4.14;75.98;98738.25;5005404;28;20066;-80
2024/02/23 06:06:56;;;;;;;7.28;2.17;;;;;;;4.16;76.46;98736.34;4999125;28;20116;-79
2024/02/23 06:09:23;;;;;;;5.80;2.40;;;;;;;4.16;76.33;98736.34;5006283;28;20046;-80
2024/02/23 06:11:50;;;;;;;6.55;3.17;;;;;;;4.16;76.21;98732.91;4997950;28;20046;-79
2024/02/23 06:14:16;;;;;;;7.20;2.45;;;;;;;4.09;76.24;98735.25;4998688;28;20050;-81
2024/02/23 06:16:43;;;;;;;7.47;2.58;;;;;;;4.00;76.86;98734.28;4998352;28;20074;-79
2024/02/23 06:19:10;;;;;;;8.82;2.50;;;;;;;4.02;77.15;98747.25;4998844;28;20096;-79
2024/02/23 06:21:36;;;;;;;10.75;2.63;;;;;;;3.92;77.66;98744.63;5001241;28;20591;-79
2024/02/23 06:24:05;;;;;;;9.07;2.38;;;;;;;3.77;78.60;98746.81;5008504;28;20084;-79
2024/02/23 06:26:31;;;;;;;6.95;2.35;;;;;;;3.74;79.12;98751.50;5002027;28;20078;-79
2024/02/23 06:28:58;;;;;;;5.53;2.05;;;;;;;3.71;79.09;98757.84;4998272;28;20090;-80
2024/02/23 06:31:25;;;;;;;12.00;3.00;;;;;;;3.71;79.35;98757.84;5004982;28;20118;-80
2024/02/23 06:33:52;;;;;;;7.55;2.60;;;;;;;3.76;79.39;98760.06;5004363;28;20046;-79
2024/02/23 06:36:19;;;;;;;9.68;2.45;;;;;;;3.82;78.95;98763.91;4999732;28;20093;-77
2024/02/23 06:38:48;;;;;;;7.28;2.63;;;;;;;3.85;78.73;98774.94;5004029;28;20139;-80
2024/02/23 06:41:16;;;;;;;7.80;2.22;;;;;;;3.88;78.99;98768.56;5002923;28;20058;-79
2024/02/23 06:43:43;;;;;;;8.32;2.53;;;;;;;3.92;78.51;98768.16;4997772;28;20046;-79
2024/02/23 06:46:10;;;;;;;8.32;2.53;;;;;;;3.90;78.66;98775.34;4997906;28;20464;-80
2024/02/23 06:48:39;;;;;;;7.07;2.85;;;;;;;3.98;78.84;98779.88;5001034;28;20050;-79
2024/02/23 06:51:09;;;;;;;9.07;2.75;;;;;;;4.07;78.84;98765.16;5000627;28;20077;-80
2024/02/23 06:53:38;;;;;;;12.40;3.17;;;;;;;4.15;78.11;98763.50;5000575;28;20058;-81
2024/02/23 06:56:05;;;;;;;9.82;2.80;;;;;;;4.26;77.66;98762.50;5005207;28;20110;-80
2024/02/23 06:58:33;;;;;;;7.93;2.38;;;;;;;4.39;77.65;98756.97;5005919;28;20130;-79
2024/02/23 07:01:00;;;;;;;9.50;2.65;;;;;;;4.65;76.94;98757.19;5008977;28;20089;-79
2024/02/23 07:03:27;;;;;;;6.07;3.05;;;;;;;4.83;76.68;98755.47;5002413;28;20138;-80
2024/02/23 07:05:55;;;;;;;11.35;3.30;;;;;;;4.97;75.59;98738.44;5004709;28;20046;-82
2024/02/23 07:08:21;;;;;;;7.57;2.90;;;;;;;5.29;74.57;98740.59;5004664;28;20061;-79
2024/02/23 07:10:48;;;;;;;9.38;3.60;;;;;;;5.12;74.87;98749.25;5007313;28;20109;-80
2024/02/23 07:13:17;;;;;;;8.35;3.25;;;;;;;4.93;75.14;98745.75;5008913;28;20118;-81
2024/02/23 07:15:46;;;;;;;10.95;2.70;;;;;;;4.69;76.43;98750.69;5006601;28;20552;-78
2024/02/23 07:18:15;;;;;;;5.85;2.22;;;;;;;4.55;75.97;98742.31;5004729;28;20054;-82
2024/02/23 07:20:47;;;;;;;7.18;2.95;;;;;;;4.44;76.97;98733.81;5004737;28;20054;-77
2024/02/23 07:23:16;;;;;;;9.77;3.08;;;;;;;4.43;76.48;98737.41;5000371;28;20120;-78
2024/02/23 07:25:43;;;;;;;6.82;2.72;;;;;;;4.40;76.38;98735.88;5002768;28;20054;-80
2024/02/23 07:28:10;;;;;;;8.68;3.28;;;;;;;4.44;76.49;98736.41;5001113;28;20061;-79
2024/02/23 07:30:37;;;;;;;9.27;3.05;;;;;;;4.36;76.51;98739.75;5015997;28;20054;-81
2024/02/23 07:33:05;;;;;;;7.75;3.47;;;;;;;5.05;75.63;98741.16;5003404;28;20081;-81
2024/02/23 07:35:34;;;;;;;8.10;2.63;;;;;;;6.07;69.89;98733.00;5007177;28;20046;-81
2024/02/23 07:38:01;;;;;;;5.18;3.03;;;;;;;6.69;68.28;98735.56;5021363;28;20054;-81
2024/02/23 07:40:28;;;;;;;8.23;3.08;;;;;;;6.94;66.35;98737.31;5021581;28;20053;-83
2024/02/23 07:42:54;;;;;;;9.32;4.35;;;;;;;7.34;65.44;98749.00;5015079;28;20053;-80
2024/02/23 07:45:21;;;;;;;5.30;2.95;;;;;;;7.64;63.63;98749.41;5001726;28;20043;-79
2024/02/23 07:47:48;;;;;;;5.20;2.00;;;;;;;7.82;62.19;98750.09;5003906;28;20062;-79
2024/02/23 07:50:18;;;;;;;6.38;3.30;;;;;;;7.57;63.21;98751.84;5018962;28;20073;-80
2024/02/23 07:52:45;;;;;;;4.68;2.65;;;;;;;7.84;62.71;98759.44;5015704;28;20061;-79
2024/02/23 07:55:11;;;;;;;19.20;10.10;;;;;;;7.83;62.82;98749.91;5006200;28;20534;-79
2024/02/23 07:57:39;;;;;;;7.72;4.32;;;;;;;8.10;61.93;98761.13;5012614;28;20519;-79
2024/02/23 08:00:09;;;;;;;24.73;17.73;;;;;;;8.20;62.10;98759.13;5000277;28;20054;-81
2024/02/23 08:02:36;;;;;;;10.05;4.40;;;;;;;8.65;61.11;98751.72;5013280;28;20133;-80
2024/02/23 08:05:02;;;;;;;6.10;3.15;;;;;;;8.32;60.99;98749.91;5006176;28;20070;-79
2024/02/23 08:07:31;;;;;;;13.35;4.70;;;;;;;8.79;59.90;98749.19;5004352;28;20111;-79
2024/02/23 08:09:57;;;;;;;10.73;4.05;;;;;;;8.56;59.82;98756.19;5019872;28;20050;-81
2024/02/23 08:12:24;;;;;;;6.25;4.00;;;;;;;7.76;62.63;98750.72;5009729;28;20062;-78
2024/02/23 08:14:53;;;;;;;8.48;3.47;;;;;;;7.31;63.63;98751.94;5002816;28;20138;-81
2024/02/23 08:17:19;;;;;;;9.20;2.17;;;;;;;7.58;62.35;98753.47;5005873;28;20129;-78
2024/02/23 08:19:47;;;;;;;6.85;3.33;;;;;;;7.47;63.53;98752.00;5001788;28;20106;-80
2024/02/23 08:22:14;;;;;;;6.15;3.20;;;;;;;7.53;64.23;98742.63;5015248;28;20113;-79
2024/02/23 08:24:42;;;;;;;9.10;2.45;;;;;;;7.60;63.47;98730.47;5008720;28;20054;-80
2024/02/23 08:27:12;;;;;;;5.93;3.25;;;;;;;7.95;61.94;98731.16;5014769;28;20092;-80
2024/02/23 08:29:39;;;;;;;7.22;2.42;;;;;;;7.99;61.50;98743.84;4999277;28;20190;-79
2024/02/23 08:32:06;;;;;;;8.10;2.17;;;;;;;7.91;62.13;98743.03;5016121;28;20049;-78
2024/02/23 08:34:33;;;;;;;11.55;2.53;;;;;;;7.93;61.64;98738.41;5006241;28;20110;-79
2024/02/23 08:37:01;;;;;;;10.82;2.60;;;;;;;8.09;61.34;98743.69;5019630;28;20046;-78
2024/02/23 08:39:28;;;;;;;7.43;2.38;;;;;;;8.09;61.67;98739.22;5015033;28;20574;-80
2024/02/23 08:41:56;;;;;;;6.90;2.05;;;;;;;8.05;61.73;98737.09;5017147;28;20173;-81
2024/02/23 08:44:23;;;;;;;5.47;2.15;;;;;;;7.75;62.36;98755.16;5019921;28;20073;-81
2024/02/23 08:46:50;;;;;;;8.60;2.60;;;;;;;7.73;63.20;98758.97;5011919;28;20058;-79
2024/02/23 08:49:16;;;;;;;5.60;2.13;;;;;;;7.65;62.68;98756.31;5018427;28;20082;-80
2024/02/23 08:51:43;;;;;;;6.68;2.55;;;;;;;7.49;63.88;98759.72;5021852;28;20058;-81
2024/02/23 08:54:10;;;;;;;6.97;1.85;;;;;;;7.46;64.20;98762.69;5010076;28;20046;-81
2024/02/23 08:56:39;;;;;;;6.68;2.30;;;;;;;7.87;61.19;98757.50;5013958;28;20050;-84
2024/02/23 08:59:07;;;;;;;5.68;2.60;;;;;;;8.05;61.72;98764.25;5007951;28;20046;-83
2024/02/23 09:01:33;;;;;;;7.78;2.72;;;;;;;7.96;61.51;98764.41;5011611;28;20065;-82
2024/02/23 09:04:00;;;;;;;6.55;2.40;;;;;;;7.89;61.61;98769.50;5007508;28;20078;-82
2024/02/23 09:06:27;;;;;;;6.45;1.90;;;;;;;7.65;62.48;98769.47;5010052;28;20073;-81
2024/02/23 09:08:53;;;;;;;4.28;1.73;;;;;;;7.71;62.82;98760.91;5005969;28;20104;-79
2024/02/23 09:11:20;;;;;;;5.35;2.83;;;;;;;7.76;62.75;98759.44;5001920;28;20133;-79
2024/02/23 09:13:46;;;;;;;4.88;1.77;;;;;;;7.58;62.91;98764.84;5003442;28;20137;-79
2024/02/23 09:16:14;;;;;;;4.32;2.03;;;;;;;7.32;63.80;98766.72;4999169;28;20125;-79
2024/02/23 09:18:41;;;;;;;4.05;1.88;;;;;;;7.27;64.27;98776.91;5000802;28;20354;-79
2024/02/23 09:21:08;;;;;;;4.50;1.65;;;;;;;7.25;63.43;98763.91;4996912;28;20141;-79
2024/02/23 09:23:34;;;;;;;4.50;1.73;;;;;;;7.30;63.29;98771.34;4997320;28;20410;-78
2024/02/23 09:26:03;;;;;;;6.65;2.08;;;;;;;7.25;64.18;98771.00;4998596;28;20069;-78
2024/02/23 09:28:31;;;;;;;6.72;3.45;;;;;;;7.50;64.18;98770.09;4991222;28;20058;-79
2024/02/23 09:30:58;;;;;;;5.18;2.35;;;;;;;7.65;63.75;98765.03;4995752;28;20697;-79
2024/02/23 09:33:26;;;;;;;3.75;2.60;;;;;;;7.77;63.39;98773.44;5003120;28;20054;-79
2024/02/23 09:35:55;;;;;;;4.93;2.20;;;;;;;7.99;64.05;98772.81;5004036;28;20477;-80
2024/02/23 09:38:24;;;;;;;5.50;2.42;;;;;;;8.39;61.22;98767.72;5005368;28;20050;-80
2024/02/23 09:40:51;;;;;;;4.18;2.00;;;;;;;8.58;61.05;98759.50;5008968;28;20081;-78
2024/02/23 09:43:18;;;;;;;3.10;1.58;;;;;;;8.45;60.81;98757.34;5012271;28;20108;-83
2024/02/23 09:45:46;;;;;;;2.53;1.17;;;;;;;8.30;60.03;98759.81;5009911;28;20046;-81
2024/02/23 09:48:18;;;;;;;3.88;1.65;;;;;;;8.20;58.69;98758.31;5011325;28;20058;-82
2024/02/23 09:50:49;;;;;;;5.97;1.60;;;;;;;8.33;59.38;98756.00;5017898;28;20054;-80
2024/02/23 09:53:15;;;;;;;6.10;1.80;;;;;;;8.27;58.82;98767.22;5015039;28;20034;-82
2024/02/23 09:55:44;;;;;;;4.43;1.83;;;;;;;8.35;59.16;98772.50;5007347;28;20129;-84
2024/02/23 09:58:14;;;;;;;5.65;2.70;;;;;;;8.28;59.52;98768.88;5010594;28;20046;-79
2024/02/23 10:00:41;;;;;;;3.65;1.73;;;;;;;8.26;58.97;98765.56;5008176;28;20501;-80
2024/02/23 10:03:06;;;;;;;3.85;1.73;;;;;;;8.15;59.04;98768.53;5006471;28;20054;-81
2024/02/23 10:05:36;;;;;;;7.22;3.45;;;;;;;8.30;59.47;98764.25;5007498;28;20122;-80
2024/02/23 10:08:05;;;;;;;4.43;2.15;;;;;;;8.29;59.44;98775.78;5006131;28;20069;-81
2024/02/23 10:10:34;;;;;;;5.55;1.60;;;;;;;8.40;58.39;98769.41;5006000;28;20058;-80
2024/02/23 10:13:01;;;;;;;8.90;2.03;;;;;;;8.55;59.09;98765.91;5013113;28;20093;-82
2024/02/23 10:15:30;;;;;;;7.20;2.28;;;;;;;8.65;57.63;98764.91;5011358;28;20054;-84
2024/02/23 10:17:57;;;;;;;6.35;2.10;;;;;;;8.80;58.26;98760.59;5011940;28;20095;-81
2024/02/23 10:20:23;;;;;;;12.50;2.55;;;;;;;8.77;57.94;98753.00;5013702;28;20078;-80
2024/02/23 10:22:52;;;;;;;9.48;2.22;;;;;;;8.82;56.52;98753.31;5006005;28;20057;-81
2024/02/23 10:25:21;;;;;;;4.20;1.33;;;;;;;8.93;56.23;98752.97;5007919;28;20050;-81
2024/02/23 10:27:48;;;;;;;6.50;1.58;;;;;;;9.04;56.24;98757.88;5015737;28;20090;-79
2024/02/23 10:30:15;;;;;;;7.43;1.98;;;;;;;9.39;55.24;98755.75;5018356;28;20074;-80
2024/02/23 10:32:42;;;;;;;11.65;2.15;;;;;;;9.62;55.46;98750.50;5026757;28;20065;-82
2024/02/23 10:35:14;;;;;;;6.15;2.33;;;;;;;9.83;55.01;98766.56;5016791;28;20034;-84
2024/02/23 10:40:12;;;;;;;4.43;1.38;;;;;;;10.19;54.07;98762.50;5023043;28;20058;-78
2024/02/23 10:42:42;;;;;;;3.90;1.70;;;;;;;10.07;52.91;98770.00;5024857;28;20069;-80
2024/02/23 10:45:09;;;;;;;3.20;1.73;;;;;;;9.42;52.91;98779.19;5017656;28;20117;-80
2024/02/23 10:47:37;;;;;;;5.43;2.20;;;;;;;9.23;54.39;98793.59;5023393;28;20442;-78
2024/02/23 10:50:04;;;;;;;4.53;1.63;;;;;;;9.24;54.56;98789.97;5028211;28;20053;-81
2024/02/23 10:52:32;;;;;;;3.13;1.58;;;;;;;9.23;56.50;98796.22;5019605;28;20049;-80
2024/02/23 10:55:04;;;;;;;5.38;3.08;;;;;;;9.16;57.00;98797.09;5019839;28;20050;-80
2024/02/23 10:57:32;;;;;;;5.30;2.55;;;;;;;8.92;58.38;98795.34;5021180;28;20042;-79
2024/02/23 11:00:00;;;;;;;4.95;2.88;;;;;;;8.86;57.70;98800.28;5022168;28;20052;-80
2024/02/23 11:02:31;;;;;;;4.10;2.00;;;;;;;8.73;59.17;98804.44;5025535;28;20049;-80
2024/02/23 11:04:59;;;;;;;5.50;2.17;;;;;;;8.60;59.00;98797.84;5022270;28;20080;-80
2024/02/23 11:07:27;;;;;;;8.25;2.20;;;;;;;8.51;59.83;98809.41;5018241;28;20105;-80
2024/02/23 11:09:55;;;;;;;7.07;2.40;;;;;;;8.41;60.00;98802.66;5019504;28;20432;-78
2024/02/23 11:12:26;;;;;;;9.95;2.60;;;;;;;8.38;60.79;98788.00;5019140;28;20094;-78
2024/02/23 11:14:52;;;;;;;6.93;2.45;;;;;;;8.46;60.43;98798.53;5020898;28;20050;-80
2024/02/23 11:17:21;;;;;;;8.77;2.60;;;;;;;8.34;60.50;98791.91;5021094;28;20052;-81
2024/02/23 11:19:51;;;;;;;8.13;2.47;;;;;;;8.46;60.90;98792.44;5020880;28;20128;-80
2024/02/23 11:22:25;;;;;;;7.43;2.00;;;;;;;8.51;61.52;98780.41;5020632;28;20052;-79
2024/02/23 11:25:03;;;;;;;5.63;1.92;;;;;;;8.60;60.53;98782.03;5017467;28;20053;-81
2024/02/23 11:27:32;;;;;;;4.47;2.30;;;;;;;8.81;60.08;98778.06;5015311;28;20081;-80
2024/02/23 11:30:04;;;;;;;5.43;2.53;;;;;;;8.85;60.14;98772.28;5017336;28;20085;-80
2024/02/23 11:32:44;;;;;;;3.87;2.27;;;;;;;9.00;59.00;98769.75;5000077;28;20057;-77
2024/02/23 11:35:12;;;;;;;3.78;1.75;;;;;;;9.16;58.76;98770.72;5019963;28;20121;-79
2024/02/23 11:37:50;;;;;;;5.72;2.40;;;;;;;9.21;58.07;98773.66;5020497;28;20346;-80
2024/02/23 11:40:18;;;;;;;6.10;2.47;;;;;;;9.20;58.08;98772.00;5013480;28;20053;-79
2024/02/23 11:42:45;;;;;;;10.43;6.72;;;;;;;9.07;58.85;98768.09;5021156;28;20050;-80
2024/02/23 11:45:11;;;;;;;8.35;3.80;;;;;;;9.29;58.21;98768.34;5021647;28;20393;-78